UHPP

Yelizovo Airport

Petropavlovsk-Kamchatsky, Russian Federation
METAR UHPP 250800Z 24003MPS 210V270 9999 NSC 05/M05 Q1012 R34L/CLRD70 NOSIG RMK QFE756/1008
Observed Flight Rules
Apr-25 @ 08:00 UTC (32 minutes ago) Visual Flight Rules
Wind Visibility Clouds
240° at 6 knots 10,000+ meters
  • Clear skies
Temperatures Readings
Current 5°C / 41°F
Dewpoint -5°C / 23°F
Humidity 49%
Altimeter 29.88" Hg
Pressure 1012 hPa
Elevation 40
METAR UHPP 250800Z 24003MPS 210V270 9999 NSC 05/M05 Q1012 R34L/CLRD70 NOSIG RMK QFE756/1008
Observed Flight Rules
Apr-25 @ 08:00 UTC
(32 minutes ago)
VFR
Wind Visibility
240° at 6 knots 10,000+ meters
Clouds
  • Clear skies
Temperature Dewpoint
5°C / 41°F -5°C / 23°F
Humidity Altimeter Pressure
49% 29.88" Hg 1012 hPa